createdAt,value
2018-09-26T00:00:28.595Z,99.99
2018-09-26T00:01:28.620Z,99.99
2018-09-26T00:02:28.647Z,99.99
2018-09-26T00:03:28.671Z,99.99
2018-09-26T00:04:28.696Z,99.99
2018-09-26T00:05:28.723Z,99.99
2018-09-26T00:06:28.747Z,99.99
2018-09-26T00:07:28.774Z,99.99
2018-09-26T00:08:28.798Z,99.99
2018-09-26T00:09:28.826Z,99.99
2018-09-26T00:10:28.849Z,99.99
2018-09-26T00:11:28.895Z,99.99
2018-09-26T00:12:28.901Z,99.99
2018-09-26T00:13:28.927Z,99.99
2018-09-26T00:14:29.001Z,99.99
2018-09-26T00:15:28.977Z,99.99
2018-09-26T00:16:29.006Z,99.99
2018-09-26T00:17:29.030Z,99.99
2018-09-26T00:18:29.056Z,99.99
2018-09-26T00:19:29.080Z,99.99
2018-09-26T00:20:29.106Z,99.99
2018-09-26T00:21:29.132Z,99.99
2018-09-26T00:22:29.156Z,99.99
2018-09-26T00:23:29.189Z,99.99
2018-09-26T00:24:29.207Z,99.99
2018-09-26T00:25:29.233Z,99.99
2018-09-26T00:26:29.260Z,99.99
2018-09-26T00:27:29.283Z,99.99
2018-09-26T00:28:29.309Z,99.99
2018-09-26T00:29:29.336Z,99.99
2018-09-26T00:30:29.360Z,99.99
2018-09-26T00:31:29.386Z,99.99
2018-09-26T00:32:29.413Z,99.99
2018-09-26T00:33:29.442Z,99.99
2018-09-26T00:34:29.476Z,99.99
2018-09-26T00:35:29.487Z,99.99
2018-09-26T00:36:29.515Z,99.99
2018-09-26T00:37:29.550Z,99.99
2018-09-26T00:38:29.563Z,99.99
2018-09-26T00:39:29.588Z,99.99
2018-09-26T00:40:29.614Z,99.99
2018-09-26T00:41:29.641Z,99.99
2018-09-26T00:42:29.663Z,99.99
2018-09-26T00:43:29.690Z,99.99
2018-09-26T00:44:29.717Z,99.99
2018-09-26T00:45:29.741Z,99.99
2018-09-26T00:46:29.765Z,99.99
2018-09-26T00:47:29.791Z,99.99
2018-09-26T00:48:29.816Z,99.99
2018-09-26T00:49:29.845Z,99.99
2018-09-26T00:50:29.866Z,99.99
2018-09-26T00:51:29.911Z,99.99
2018-09-26T00:52:29.917Z,99.99
2018-09-26T00:53:29.944Z,99.99
2018-09-26T00:54:29.972Z,99.99
2018-09-26T00:55:29.994Z,99.99
2018-09-26T00:56:30.018Z,99.99
2018-09-26T00:57:30.046Z,99.99
2018-09-26T00:58:30.068Z,99.99
2018-09-26T00:59:30.098Z,99.99
2018-09-26T01:00:30.120Z,99.99
2018-09-26T01:01:30.144Z,99.99
2018-09-26T01:02:30.187Z,99.99
2018-09-26T01:03:30.194Z,99.99
2018-09-26T01:04:30.222Z,99.99
2018-09-26T01:05:30.247Z,99.99
2018-09-26T01:06:30.270Z,99.99
2018-09-26T01:07:30.295Z,99.99
2018-09-26T01:08:30.322Z,99.99
2018-09-26T01:09:30.367Z,99.99
2018-09-26T01:10:30.374Z,99.99
2018-09-26T01:11:30.395Z,99.99
2018-09-26T01:12:30.424Z,99.99
2018-09-26T01:13:30.448Z,99.99
2018-09-26T01:14:30.473Z,99.99
2018-09-26T01:15:30.497Z,99.99
2018-09-26T01:16:30.524Z,99.99
2018-09-26T01:17:30.547Z,99.99
2018-09-26T01:18:30.575Z,99.99
2018-09-26T01:19:30.600Z,99.99
2018-09-26T01:20:30.623Z,99.99
2018-09-26T01:21:30.652Z,99.99
2018-09-26T01:22:30.673Z,99.99
2018-09-26T01:23:30.701Z,99.99
2018-09-26T01:24:30.724Z,99.99
2018-09-26T01:25:30.750Z,99.99
2018-09-26T01:26:30.775Z,99.99
2018-09-26T01:27:30.801Z,99.99
2018-09-26T01:28:30.827Z,99.99
2018-09-26T01:29:30.870Z,99.99
2018-09-26T01:30:30.876Z,99.99
2018-09-26T01:31:30.902Z,99.99
2018-09-26T01:32:30.928Z,99.99
2018-09-26T01:33:30.953Z,99.99
2018-09-26T01:34:30.975Z,99.99
2018-09-26T01:35:31.002Z,99.99
2018-09-26T01:36:31.027Z,99.99
2018-09-26T01:37:31.053Z,99.99
2018-09-26T01:38:31.076Z,99.99
2018-09-26T01:39:31.103Z,99.99
2018-09-26T01:40:31.127Z,99.99
2018-09-26T01:41:31.200Z,99.99
2018-09-26T01:42:31.178Z,99.99
2018-09-26T01:43:31.202Z,99.99
2018-09-26T01:44:31.230Z,99.99
2018-09-26T01:45:31.252Z,99.99
2018-09-26T01:46:31.277Z,99.99
2018-09-26T01:47:31.302Z,99.99
2018-09-26T01:48:31.330Z,99.99
2018-09-26T01:49:31.355Z,99.99
2018-09-26T01:50:31.383Z,99.99
2018-09-26T01:51:31.404Z,99.99
2018-09-26T01:52:31.431Z,99.99
2018-09-26T01:53:31.461Z,99.99
2018-09-26T01:54:31.481Z,99.99
2018-09-26T01:55:31.505Z,99.99
2018-09-26T01:56:31.532Z,99.99
2018-09-26T01:57:31.555Z,99.99
2018-09-26T01:58:31.598Z,99.99
2018-09-26T01:59:31.608Z,99.99
2018-09-26T02:00:31.632Z,99.99
2018-09-26T02:01:31.656Z,99.99
2018-09-26T02:02:31.688Z,99.99
2018-09-26T02:03:31.709Z,99.99
2018-09-26T02:04:31.731Z,99.99
2018-09-26T02:05:31.757Z,99.99
2018-09-26T02:06:31.780Z,99.99
2018-09-26T02:07:31.806Z,99.99
2018-09-26T02:08:31.832Z,99.99
2018-09-26T02:09:31.859Z,99.99
2018-09-26T02:10:31.883Z,99.99
2018-09-26T02:11:31.910Z,99.99
2018-09-26T02:12:31.935Z,99.99
2018-09-26T02:13:31.960Z,99.99
2018-09-26T02:14:32.310Z,99.99
2018-09-26T02:15:32.015Z,99.99
2018-09-26T02:16:32.036Z,99.99
2018-09-26T02:17:32.060Z,99.99
2018-09-26T02:18:32.086Z,99.99
2018-09-26T02:19:32.110Z,99.99
2018-09-26T02:20:32.466Z,99.99
2018-09-26T02:21:32.161Z,99.99
2018-09-26T02:22:32.185Z,99.99
2018-09-26T02:23:32.266Z,99.99
2018-09-26T02:24:32.236Z,99.99
2018-09-26T02:25:32.262Z,99.99
2018-09-26T02:26:32.287Z,99.99
2018-09-26T02:27:32.312Z,99.99
2018-09-26T02:28:32.337Z,99.99
2018-09-26T02:29:32.382Z,99.99
2018-09-26T02:30:32.590Z,99.99
2018-09-26T02:31:32.412Z,99.99
2018-09-26T02:32:32.437Z,99.99
2018-09-26T02:33:32.464Z,99.99
2018-09-26T02:34:32.487Z,99.99
2018-09-26T02:35:32.514Z,99.99
2018-09-26T02:36:32.538Z,99.99
2018-09-26T02:37:32.564Z,99.99
2018-09-26T02:38:32.588Z,99.99
2018-09-26T02:39:32.615Z,99.99
2018-09-26T02:40:32.643Z,99.99
2018-09-26T02:41:32.667Z,99.99
2018-09-26T02:42:32.689Z,99.99
2018-09-26T02:43:32.713Z,99.99
2018-09-26T02:44:32.739Z,99.99
2018-09-26T02:45:32.765Z,99.99
2018-09-26T02:46:32.789Z,99.99
2018-09-26T02:47:32.817Z,99.99
2018-09-26T02:48:32.847Z,99.99
2018-09-26T02:49:32.866Z,99.99
2018-09-26T02:50:32.890Z,99.99
2018-09-26T02:51:32.914Z,99.99
2018-09-26T02:52:32.940Z,99.99
2018-09-26T02:53:32.966Z,99.99
2018-09-26T02:54:32.990Z,99.99
2018-09-26T02:55:33.039Z,99.99
2018-09-26T02:56:33.041Z,99.99
2018-09-26T02:57:33.065Z,99.99
2018-09-26T02:58:33.092Z,99.99
2018-09-26T02:59:33.116Z,99.99
2018-09-26T03:00:33.141Z,99.99
2018-09-26T03:01:33.166Z,99.99
2018-09-26T03:02:33.191Z,99.99
2018-09-26T03:03:33.215Z,99.99
2018-09-26T03:04:33.260Z,99.99
2018-09-26T03:05:33.269Z,99.99
2018-09-26T03:06:33.297Z,99.99
2018-09-26T03:07:33.319Z,99.99
2018-09-26T03:08:33.341Z,99.99
2018-09-26T03:09:33.366Z,99.99
2018-09-26T03:10:33.392Z,99.99
2018-09-26T03:11:33.415Z,99.99
2018-09-26T03:12:33.441Z,99.99
2018-09-26T03:13:33.467Z,99.99
2018-09-26T03:14:33.492Z,99.99
2018-09-26T03:15:33.517Z,99.99
2018-09-26T03:16:33.543Z,99.99
2018-09-26T03:17:33.609Z,99.99
2018-09-26T03:18:33.591Z,99.99
2018-09-26T03:19:33.618Z,99.99
2018-09-26T03:20:33.640Z,99.99
2018-09-26T03:21:33.666Z,99.99
2018-09-26T03:22:33.695Z,99.99
2018-09-26T03:23:33.720Z,99.99
2018-09-26T03:24:33.742Z,99.99
2018-09-26T03:25:33.768Z,99.99
2018-09-26T03:26:33.791Z,99.99
2018-09-26T03:27:33.818Z,99.99
2018-09-26T03:28:33.843Z,99.99
2018-09-26T03:29:33.867Z,99.99
2018-09-26T03:30:33.891Z,99.99
2018-09-26T03:31:33.918Z,99.99
2018-09-26T03:32:33.942Z,99.99
2018-09-26T03:33:33.991Z,99.99
2018-09-26T03:34:33.992Z,99.99
2018-09-26T03:35:34.016Z,99.99
2018-09-26T03:36:34.042Z,99.99
2018-09-26T03:37:34.068Z,99.99
2018-09-26T03:38:34.090Z,99.99
2018-09-26T03:39:34.116Z,99.99
2018-09-26T03:40:34.151Z,99.99
2018-09-26T03:41:34.166Z,99.99
2018-09-26T03:42:34.194Z,99.99
2018-09-26T03:43:34.217Z,99.99
2018-09-26T03:44:34.245Z,99.99
2018-09-26T03:45:34.266Z,99.99
2018-09-26T03:46:34.291Z,99.99
2018-09-26T03:47:34.315Z,99.99
2018-09-26T03:48:34.343Z,99.99
2018-09-26T03:49:34.367Z,99.99
2018-09-26T03:50:34.390Z,99.99
2018-09-26T03:51:34.414Z,99.99
2018-09-26T03:52:34.441Z,99.99
2018-09-26T03:53:34.470Z,99.99
2018-09-26T03:54:34.489Z,99.99
2018-09-26T03:55:34.516Z,99.99
2018-09-26T03:56:34.540Z,99.99
2018-09-26T03:57:34.565Z,99.99
2018-09-26T03:58:34.592Z,99.99
2018-09-26T03:59:34.615Z,99.99
2018-09-26T04:00:34.643Z,99.99
2018-09-26T04:01:34.667Z,99.99
2018-09-26T04:02:34.690Z,99.99
2018-09-26T04:03:34.716Z,99.99
2018-09-26T04:04:34.741Z,99.99
2018-09-26T04:05:34.768Z,99.99
2018-09-26T04:06:34.790Z,99.99
2018-09-26T04:07:34.818Z,99.99
2018-09-26T04:08:34.839Z,99.99
2018-09-26T04:09:34.882Z,99.99
2018-09-26T04:10:34.893Z,99.99
2018-09-26T04:11:34.915Z,99.99
2018-09-26T04:12:34.953Z,99.99
2018-09-26T04:13:34.965Z,99.99
2018-09-26T04:14:34.990Z,99.99
2018-09-26T04:15:35.082Z,99.99
2018-09-26T04:16:35.041Z,99.99
2018-09-26T04:17:35.067Z,99.99
2018-09-26T04:18:35.093Z,99.99
2018-09-26T04:19:35.117Z,99.99
2018-09-26T04:20:35.143Z,99.99
2018-09-26T04:21:35.166Z,99.99
2018-09-26T04:22:35.191Z,99.99
2018-09-26T04:23:35.216Z,99.99
2018-09-26T04:24:35.244Z,99.99
2018-09-26T04:25:35.271Z,99.99
2018-09-26T04:26:35.386Z,99.99
2018-09-26T04:27:35.404Z,99.99
2018-09-26T04:28:35.343Z,99.99
2018-09-26T04:29:35.457Z,99.99
2018-09-26T04:30:35.458Z,99.99
2018-09-26T04:31:35.417Z,99.99
2018-09-26T04:32:35.466Z,99.99
2018-09-26T04:33:35.587Z,99.99
2018-09-26T04:34:35.492Z,99.99
2018-09-26T04:35:35.517Z,99.99
2018-09-26T04:36:35.544Z,99.99
2018-09-26T04:37:35.569Z,99.99
2018-09-26T04:38:35.629Z,99.99
2018-09-26T04:39:35.619Z,99.99
2018-09-26T04:40:35.642Z,99.99
2018-09-26T04:41:35.672Z,99.99
2018-09-26T04:42:35.691Z,99.99
2018-09-26T04:43:35.717Z,99.99
2018-09-26T04:44:35.743Z,99.99
2018-09-26T04:45:35.768Z,99.99
2018-09-26T04:46:35.791Z,99.99
2018-09-26T04:47:35.818Z,99.99
2018-09-26T04:48:35.841Z,99.99
2018-09-26T04:49:35.870Z,99.99
2018-09-26T04:50:35.894Z,99.99
2018-09-26T04:51:35.918Z,99.99
2018-09-26T04:52:35.941Z,99.99
2018-09-26T04:53:35.967Z,99.99
2018-09-26T04:54:35.999Z,99.99
2018-09-26T04:55:36.021Z,99.99
2018-09-26T04:56:36.044Z,99.99
2018-09-26T04:57:36.069Z,99.99
2018-09-26T04:58:36.093Z,99.99
2018-09-26T04:59:36.116Z,99.99
2018-09-26T05:00:36.142Z,99.99
2018-09-26T05:01:36.167Z,99.99
2018-09-26T05:02:36.194Z,99.99
2018-09-26T05:03:36.216Z,99.99
2018-09-26T05:04:36.242Z,99.99
2018-09-26T05:05:36.268Z,99.99
2018-09-26T05:06:36.291Z,99.99
2018-09-26T05:07:36.316Z,99.99
2018-09-26T05:08:36.342Z,99.99
2018-09-26T05:09:36.368Z,99.99
2018-09-26T05:10:36.391Z,99.99
2018-09-26T05:11:36.416Z,99.99
2018-09-26T05:12:36.444Z,99.99
2018-09-26T05:13:36.469Z,99.99
2018-09-26T05:14:36.547Z,99.99
2018-09-26T05:15:37.325Z,99.99
2018-09-26T05:16:36.545Z,99.99
2018-09-26T05:17:36.769Z,99.99
2018-09-26T05:18:36.637Z,99.99
2018-09-26T05:19:36.620Z,99.99
2018-09-26T05:20:36.644Z,99.99
2018-09-26T05:21:36.669Z,99.99
2018-09-26T05:22:36.711Z,99.99
2018-09-26T05:23:36.718Z,99.99
2018-09-26T05:24:36.741Z,99.99
2018-09-26T05:25:36.770Z,99.99
2018-09-26T05:26:36.791Z,99.99
2018-09-26T05:27:36.819Z,99.99
2018-09-26T05:28:36.846Z,99.99
2018-09-26T05:29:36.867Z,99.99
2018-09-26T05:30:36.892Z,99.99
2018-09-26T05:31:36.916Z,99.99
2018-09-26T05:32:36.947Z,99.99
2018-09-26T05:33:36.967Z,99.99
2018-09-26T05:34:36.995Z,99.99
2018-09-26T05:35:37.025Z,99.99
2018-09-26T05:36:37.044Z,99.99
2018-09-26T05:37:37.069Z,99.99
2018-09-26T05:38:37.094Z,99.99
2018-09-26T05:39:37.119Z,99.99
2018-09-26T05:40:37.142Z,99.99
2018-09-26T05:41:37.219Z,99.99
2018-09-26T05:42:37.192Z,99.99
2018-09-26T05:43:37.221Z,99.99
2018-09-26T05:44:37.243Z,99.99
2018-09-26T05:45:37.268Z,99.99
2018-09-26T05:46:37.293Z,99.60
2018-09-26T05:47:37.319Z,99.50
2018-09-26T05:48:37.344Z,99.41
2018-09-26T05:49:37.369Z,98.65
2018-09-26T05:50:37.394Z,98.83
2018-09-26T05:51:37.420Z,98.08
2018-09-26T05:52:37.448Z,98.27
2018-09-26T05:53:37.555Z,97.88
2018-09-26T05:54:37.493Z,97.31
2018-09-26T05:55:37.518Z,96.94
2018-09-26T05:56:37.544Z,96.55
2018-09-26T05:57:37.570Z,96.36
2018-09-26T05:58:37.593Z,96.84
2018-09-26T05:59:37.631Z,96.74
2018-09-26T06:00:37.646Z,96.55
2018-09-26T06:01:37.670Z,95.89
2018-09-26T06:02:37.694Z,96.36
2018-09-26T06:03:37.719Z,95.89
2018-09-26T06:04:37.746Z,96.17
2018-09-26T06:05:37.778Z,96.36
2018-09-26T06:06:37.795Z,96.46
2018-09-26T06:07:37.824Z,96.26
2018-09-26T06:08:37.848Z,95.60
2018-09-26T06:09:37.874Z,95.51
2018-09-26T06:10:37.895Z,95.60
2018-09-26T06:11:37.937Z,95.51
2018-09-26T06:12:37.946Z,95.60
2018-09-26T06:13:37.973Z,95.22
2018-09-26T06:14:37.997Z,95.22
2018-09-26T06:15:38.025Z,95.03
2018-09-26T06:16:38.047Z,94.60
2018-09-26T06:17:38.074Z,94.60
2018-09-26T06:18:38.100Z,94.60
2018-09-26T06:19:38.125Z,93.46
2018-09-26T06:20:38.148Z,93.37
2018-09-26T06:21:38.175Z,93.65
2018-09-26T06:22:38.199Z,93.18
2018-09-26T06:23:38.224Z,93.37
2018-09-26T06:24:38.277Z,93.27
2018-09-26T06:25:38.276Z,93.08
2018-09-26T06:26:38.302Z,92.70
2018-09-26T06:27:38.326Z,92.79
2018-09-26T06:28:38.351Z,93.08
2018-09-26T06:29:38.377Z,92.60
2018-09-26T06:30:38.403Z,92.79
2018-09-26T06:31:38.431Z,92.03
2018-09-26T06:32:38.455Z,92.13
2018-09-26T06:33:38.480Z,92.32
2018-09-26T06:34:38.505Z,91.94
2018-09-26T06:35:38.528Z,92.41
2018-09-26T06:36:38.557Z,92.03
2018-09-26T06:37:38.582Z,92.03
2018-09-26T06:38:38.627Z,92.03
2018-09-26T06:39:38.634Z,92.41
2018-09-26T06:40:38.657Z,91.65
2018-09-26T06:41:38.684Z,91.46
2018-09-26T06:42:38.708Z,91.84
2018-09-26T06:43:38.732Z,92.03
2018-09-26T06:44:38.758Z,91.94
2018-09-26T06:45:38.785Z,91.94
2018-09-26T06:46:38.809Z,91.84
2018-09-26T06:47:38.894Z,91.37
2018-09-26T06:48:38.861Z,91.17
2018-09-26T06:49:38.888Z,91.31
2018-09-26T06:50:38.910Z,91.56
2018-09-26T06:51:38.946Z,91.37
2018-09-26T06:52:38.967Z,91.17
2018-09-26T06:53:38.999Z,91.60
2018-09-26T06:54:39.015Z,91.22
2018-09-26T06:55:39.045Z,91.22
2018-09-26T06:56:39.067Z,90.94
2018-09-26T06:57:39.092Z,90.75
2018-09-26T06:58:39.120Z,90.36
2018-09-26T06:59:39.144Z,90.56
2018-09-26T07:00:39.177Z,90.46
2018-09-26T07:01:39.196Z,90.75
2018-09-26T07:02:39.237Z,89.79
2018-09-26T07:03:39.249Z,89.98
2018-09-26T07:04:39.276Z,89.98
2018-09-26T07:05:39.299Z,89.89
2018-09-26T07:06:39.324Z,90.36
2018-09-26T07:07:39.350Z,89.41
2018-09-26T07:08:39.378Z,89.98
2018-09-26T07:09:39.419Z,89.13
2018-09-26T07:10:42.456Z,88.93
2018-09-26T07:11:39.453Z,88.79
2018-09-26T07:12:39.479Z,89.41
2018-09-26T07:13:39.507Z,88.89
2018-09-26T07:14:39.533Z,88.84
2018-09-26T07:15:39.558Z,88.51
2018-09-26T07:16:39.583Z,88.60
2018-09-26T07:17:39.612Z,88.51
2018-09-26T07:18:39.640Z,88.12
2018-09-26T07:19:39.663Z,88.60
2018-09-26T07:20:39.689Z,88.31
2018-09-26T07:21:39.714Z,88.22
2018-09-26T07:22:39.741Z,88.31
2018-09-26T07:23:39.765Z,87.65
2018-09-26T07:24:39.792Z,87.46
2018-09-26T07:25:39.819Z,87.84
2018-09-26T07:26:39.843Z,87.46
2018-09-26T07:27:39.872Z,87.27
2018-09-26T07:28:39.897Z,86.88
2018-09-26T07:29:39.924Z,87.17
2018-09-26T07:30:39.948Z,87.17
2018-09-26T07:31:39.977Z,87.46
2018-09-26T07:32:40.004Z,86.88
2018-09-26T07:33:40.029Z,86.93
2018-09-26T07:34:40.059Z,86.07
2018-09-26T07:35:40.079Z,85.88
2018-09-26T07:36:40.105Z,85.31
2018-09-26T07:37:40.133Z,85.50
2018-09-26T07:38:40.160Z,85.50
2018-09-26T07:39:40.188Z,85.31
2018-09-26T07:40:40.212Z,84.83
2018-09-26T07:41:40.238Z,84.83
2018-09-26T07:42:40.267Z,85.41
2018-09-26T07:43:40.292Z,85.12
2018-09-26T07:44:40.317Z,84.74
2018-09-26T07:45:40.356Z,84.74
2018-09-26T07:46:40.372Z,84.64
2018-09-26T07:47:40.397Z,84.20
2018-09-26T07:48:40.423Z,84.11
2018-09-26T07:49:40.451Z,83.92
2018-09-26T07:50:40.478Z,83.44
2018-09-26T07:51:40.505Z,82.97
2018-09-26T07:52:40.532Z,82.97
2018-09-26T07:53:40.559Z,81.92
2018-09-26T07:54:40.585Z,81.92
2018-09-26T07:55:40.611Z,81.92
2018-09-26T07:56:40.640Z,81.63
2018-09-26T07:57:40.665Z,81.63
2018-09-26T07:58:40.695Z,81.82
2018-09-26T07:59:40.719Z,81.77
2018-09-26T08:00:40.748Z,80.91
2018-09-26T08:01:40.804Z,80.43
2018-09-26T08:02:40.800Z,80.72
2018-09-26T08:03:40.826Z,79.52
2018-09-26T08:04:40.857Z,78.85
2018-09-26T08:05:40.887Z,77.89
2018-09-26T08:06:40.911Z,77.70
2018-09-26T08:07:40.936Z,78.47
2018-09-26T08:08:40.966Z,78.09
2018-09-26T08:09:40.994Z,77.61
2018-09-26T08:10:41.019Z,77.51
2018-09-26T08:11:41.102Z,77.23
2018-09-26T08:12:41.074Z,77.03
2018-09-26T08:13:41.102Z,76.79
2018-09-26T08:14:41.131Z,76.03
2018-09-26T08:15:41.158Z,75.93
2018-09-26T08:16:41.187Z,76.21
2018-09-26T08:17:41.214Z,75.93
2018-09-26T08:18:41.467Z,75.68
2018-09-26T08:19:41.287Z,75.30
2018-09-26T08:20:41.300Z,74.78
2018-09-26T08:21:41.329Z,74.59
2018-09-26T08:22:41.355Z,74.49
2018-09-26T08:23:41.396Z,74.98
2018-09-26T08:24:41.413Z,75.35
2018-09-26T08:25:41.439Z,75.10
2018-09-26T08:26:41.470Z,74.44
2018-09-26T08:27:41.495Z,74.24
2018-09-26T08:28:41.523Z,73.86
2018-09-26T08:29:41.561Z,72.91
2018-09-26T08:30:41.582Z,72.47
2018-09-26T08:31:41.612Z,72.75
2018-09-26T08:32:41.640Z,72.28
2018-09-26T08:33:41.666Z,71.99
2018-09-26T08:34:41.694Z,71.99
2018-09-26T08:35:41.724Z,71.61
2018-09-26T08:36:41.753Z,72.28
2018-09-26T08:37:41.783Z,71.67
2018-09-26T08:38:41.829Z,73.19
2018-09-26T08:39:41.846Z,72.91
2018-09-26T08:40:41.867Z,73.58
2018-09-26T08:41:41.900Z,73.67
2018-09-26T08:42:41.925Z,73.96
2018-09-26T08:43:41.992Z,72.91
2018-09-26T08:44:41.981Z,73.19
2018-09-26T08:45:42.010Z,73.00
2018-09-26T08:46:42.041Z,72.08
2018-09-26T08:47:42.069Z,71.32
2018-09-26T08:48:42.101Z,70.94
2018-09-26T08:49:42.128Z,70.87
2018-09-26T08:50:42.154Z,70.30
2018-09-26T08:51:42.183Z,70.50
2018-09-26T08:52:42.214Z,69.54
2018-09-26T08:53:42.264Z,69.19
2018-09-26T08:54:42.270Z,68.90
2018-09-26T08:55:42.299Z,68.74
2018-09-26T08:56:42.328Z,67.69
2018-09-26T08:57:42.357Z,67.31
2018-09-26T08:58:42.388Z,66.86
2018-09-26T08:59:42.466Z,66.58
2018-09-26T09:00:42.448Z,66.29
2018-09-26T09:01:42.477Z,66.16
2018-09-26T09:02:42.505Z,66.06
2018-09-26T09:03:42.535Z,66.16
2018-09-26T09:04:42.564Z,65.42
2018-09-26T09:05:42.596Z,65.17
2018-09-26T09:06:42.623Z,64.69
2018-09-26T09:07:42.653Z,63.99
2018-09-26T09:08:42.686Z,63.99
2018-09-26T09:09:42.716Z,64.85
2018-09-26T09:10:42.743Z,64.76
2018-09-26T09:11:42.812Z,65.42
2018-09-26T09:12:42.804Z,65.42
2018-09-26T09:13:42.834Z,64.85
2018-09-26T09:14:42.999Z,63.89
2018-09-26T09:15:42.895Z,64.76
2018-09-26T09:16:42.927Z,64.95
2018-09-26T09:17:42.970Z,64.76
2018-09-26T09:18:42.985Z,64.76
2018-09-26T09:19:43.018Z,64.92
2018-09-26T09:20:43.049Z,65.97
2018-09-26T09:21:43.078Z,66.25
2018-09-26T09:22:43.107Z,65.39
2018-09-26T09:23:43.139Z,65.58
2018-09-26T09:24:43.170Z,65.97
2018-09-26T09:25:43.198Z,65.23
2018-09-26T09:26:43.229Z,64.66
2018-09-26T09:27:43.323Z,63.89
2018-09-26T09:28:43.290Z,63.64
2018-09-26T09:29:43.324Z,63.54
2018-09-26T09:30:43.351Z,63.57
2018-09-26T09:31:43.381Z,62.55
2018-09-26T09:32:43.413Z,61.40
2018-09-26T09:33:43.443Z,60.82
2018-09-26T09:34:43.471Z,61.30
2018-09-26T09:35:43.504Z,60.41
2018-09-26T09:36:43.536Z,61.63
2018-09-26T09:37:43.564Z,63.16
2018-09-26T09:38:43.597Z,63.73
2018-09-26T09:39:43.628Z,64.02
2018-09-26T09:40:43.656Z,63.19
2018-09-26T09:41:43.686Z,62.71
2018-09-26T09:42:43.719Z,62.10
2018-09-26T09:43:43.750Z,62.90
2018-09-26T09:44:43.783Z,61.56
2018-09-26T09:45:43.811Z,61.88
2018-09-26T09:46:43.841Z,61.49
2018-09-26T09:47:43.873Z,61.02
2018-09-26T09:48:43.905Z,60.82
2018-09-26T09:49:43.940Z,60.35
2018-09-26T09:50:43.964Z,60.35
2018-09-26T09:51:44.067Z,60.82
2018-09-26T09:52:44.045Z,60.47
2018-09-26T09:53:44.061Z,59.99
2018-09-26T09:54:44.092Z,59.80
2018-09-26T09:55:44.122Z,60.18
2018-09-26T09:56:44.154Z,60.35
2018-09-26T09:57:44.184Z,60.72
2018-09-26T09:58:44.215Z,60.35
2018-09-26T09:59:44.247Z,59.77
2018-09-26T10:00:44.280Z,60.25
2018-09-26T10:01:44.313Z,59.99
2018-09-26T10:02:44.456Z,60.08
2018-09-26T10:03:44.376Z,59.51
2018-09-26T10:04:44.405Z,58.87
2018-09-26T10:05:44.438Z,58.26
2018-09-26T10:06:44.466Z,58.33
2018-09-26T10:07:44.498Z,58.64
2018-09-26T10:08:44.613Z,58.17
2018-09-26T10:09:44.564Z,58.33
2018-09-26T10:10:44.596Z,59.67
2018-09-26T10:11:44.625Z,59.41
2018-09-26T10:12:44.659Z,58.58
2018-09-26T10:13:44.692Z,58.36
2018-09-26T10:14:44.722Z,58.42
2018-09-26T10:15:44.754Z,59.22
2018-09-26T10:16:44.790Z,59.19
2018-09-26T10:17:44.817Z,59.19
2018-09-26T10:18:44.850Z,59.29
2018-09-26T10:19:44.880Z,59.77
2018-09-26T10:20:44.915Z,59.58
2018-09-26T10:21:44.947Z,59.86
2018-09-26T10:22:44.978Z,59.58
2018-09-26T10:23:45.012Z,59.09
2018-09-26T10:24:45.042Z,59.64
2018-09-26T10:25:45.073Z,60.50
2018-09-26T10:26:45.122Z,60.63
2018-09-26T10:27:45.135Z,59.77
2018-09-26T10:28:45.168Z,59.77
2018-09-26T10:29:45.199Z,59.86
2018-09-26T10:30:45.234Z,59.86
2018-09-26T10:31:45.318Z,59.67
2018-09-26T10:32:45.296Z,59.67
2018-09-26T10:33:45.328Z,59.22
2018-09-26T10:34:45.459Z,58.45
2018-09-26T10:35:45.388Z,58.36
2018-09-26T10:36:45.421Z,57.62
2018-09-26T10:37:45.450Z,56.85
2018-09-26T10:38:45.483Z,56.85
2018-09-26T10:39:45.516Z,56.76
2018-09-26T10:40:45.590Z,56.46
2018-09-26T10:41:45.580Z,56.37
2018-09-26T10:42:45.607Z,56.01
2018-09-26T10:43:45.639Z,55.44
2018-09-26T10:44:45.724Z,55.66
2018-09-26T10:45:45.704Z,54.53
2018-09-26T10:46:45.832Z,53.88
2018-09-26T10:47:45.768Z,52.75
2018-09-26T10:48:45.803Z,51.29
2018-09-26T10:49:45.831Z,52.12
2018-09-26T10:50:46.189Z,52.70
2018-09-26T10:51:45.895Z,52.73
2018-09-26T10:52:45.930Z,52.61
2018-09-26T10:53:45.963Z,53.19
2018-09-26T10:54:45.995Z,53.28
2018-09-26T10:55:46.025Z,53.28
2018-09-26T10:56:46.093Z,52.70
2018-09-26T10:57:46.093Z,52.92
2018-09-26T10:58:46.124Z,51.74
2018-09-26T10:59:46.156Z,51.76
2018-09-26T11:00:46.189Z,51.02
2018-09-26T11:01:46.245Z,50.71
2018-09-26T11:02:46.255Z,50.30
2018-09-26T11:03:46.288Z,51.64
2018-09-26T11:04:46.322Z,51.86
2018-09-26T11:05:46.356Z,50.63
2018-09-26T11:06:46.388Z,50.73
2018-09-26T11:07:46.423Z,50.35
2018-09-26T11:08:46.457Z,49.84
2018-09-26T11:09:46.493Z,50.99
2018-09-26T11:11:29.082Z,50.97
2018-09-26T11:12:29.167Z,51.84
2018-09-26T11:13:29.145Z,52.29
2018-09-26T11:14:29.178Z,52.22
2018-09-26T11:15:29.213Z,51.72
2018-09-26T11:16:29.479Z,50.90
2018-09-26T11:17:29.482Z,50.54
2018-09-26T11:18:29.314Z,48.95
2018-09-26T11:19:29.347Z,48.64
2018-09-26T11:20:29.382Z,48.93
2018-09-26T11:21:29.416Z,49.22
2018-09-26T11:22:29.449Z,48.54
2018-09-26T11:23:29.484Z,49.58
2018-09-26T11:24:29.517Z,49.19
2018-09-26T11:25:29.552Z,49.46
2018-09-26T11:26:29.610Z,49.19
2018-09-26T11:27:29.621Z,48.95
2018-09-26T11:28:29.856Z,49.00
2018-09-26T11:29:29.689Z,49.65
2018-09-26T11:30:29.743Z,49.10
2018-09-26T11:31:30.080Z,48.83
2018-09-26T11:32:29.811Z,48.83
2018-09-26T11:33:30.000Z,48.25
2018-09-26T11:34:29.859Z,48.21
2018-09-26T11:35:29.897Z,45.94
2018-09-26T11:36:30.936Z,45.40
2018-09-26T11:37:31.172Z,44.15
2018-09-26T11:38:29.996Z,43.95
2018-09-26T11:39:30.027Z,43.68
2018-09-26T11:40:30.063Z,43.37
2018-09-26T11:41:30.100Z,44.46
2018-09-26T11:42:30.144Z,45.03
2018-09-26T11:43:30.170Z,46.83
2018-09-26T11:44:30.215Z,46.20
2018-09-26T11:45:30.241Z,45.28
2018-09-26T11:46:30.274Z,44.05
2018-09-26T11:47:30.310Z,43.23
2018-09-26T11:48:30.347Z,42.87
2018-09-26T11:49:30.384Z,44.29
2018-09-26T11:50:30.419Z,44.80
2018-09-26T11:51:30.456Z,44.66
2018-09-26T11:52:30.495Z,45.92
2018-09-26T11:53:30.526Z,45.92
2018-09-26T11:54:30.561Z,44.78
2018-09-26T11:55:30.596Z,44.08
2018-09-26T11:56:30.703Z,44.25
2018-09-26T11:57:30.670Z,44.71
2018-09-26T11:58:30.705Z,45.12
2018-09-26T11:59:30.739Z,44.73
2018-09-26T12:00:30.780Z,45.12
2018-09-26T12:01:30.815Z,44.83
2018-09-26T12:02:30.961Z,44.46
2018-09-26T12:03:30.885Z,44.52
2018-09-26T12:04:30.918Z,45.29
2018-09-26T12:05:30.956Z,45.56
2018-09-26T12:06:30.988Z,46.23
2018-09-26T12:07:31.034Z,46.06
2018-09-26T12:08:31.062Z,45.31
2018-09-26T12:09:31.098Z,44.83
2018-09-26T12:10:31.132Z,43.72
2018-09-26T12:11:31.166Z,42.68
2018-09-26T12:12:31.201Z,42.58
2018-09-26T12:13:31.236Z,42.27
2018-09-26T12:14:31.272Z,42.54
2018-09-26T12:15:31.309Z,42.19
2018-09-26T12:16:31.344Z,41.54
2018-09-26T12:17:31.580Z,41.63
2018-09-26T12:18:31.413Z,41.13
2018-09-26T12:19:31.449Z,42.27
2018-09-26T12:20:31.483Z,42.73
2018-09-26T12:21:31.521Z,43.60
2018-09-26T12:22:31.614Z,42.58
2018-09-26T12:23:31.590Z,42.46
2018-09-26T12:24:31.624Z,42.85
2018-09-26T12:25:31.662Z,42.48
2018-09-26T12:26:31.695Z,41.52
2018-09-26T12:27:31.732Z,40.86
2018-09-26T12:28:31.768Z,40.42
2018-09-26T12:29:31.818Z,40.01
2018-09-26T12:30:31.844Z,40.40
2018-09-26T12:31:31.872Z,40.45
2018-09-26T12:32:31.967Z,41.33
2018-09-26T12:33:31.943Z,41.63
2018-09-26T12:34:31.984Z,40.77
2018-09-26T12:35:32.014Z,40.32
2018-09-26T12:36:32.049Z,39.84
2018-09-26T12:37:32.088Z,40.30
2018-09-26T12:38:32.122Z,40.67
2018-09-26T12:39:32.157Z,40.96
2018-09-26T12:40:32.194Z,41.91
2018-09-26T12:41:32.228Z,41.44
2018-09-26T12:42:32.267Z,41.63
2018-09-26T12:43:32.299Z,41.54
2018-09-26T12:44:32.336Z,41.56
2018-09-26T12:45:32.369Z,40.88
2018-09-26T12:46:32.404Z,40.98
2018-09-26T12:47:32.444Z,40.88
2018-09-26T12:48:32.623Z,40.98
2018-09-26T12:49:32.512Z,40.83
2018-09-26T12:50:32.550Z,40.46
2018-09-26T12:51:32.584Z,39.41
2018-09-26T12:52:32.618Z,38.53
2018-09-26T12:53:32.688Z,40.40